Gas, Kansas
Current Conditions -  °F | °C
As of 4:42 AM on Monday 22 Dec 2014 (Local Time) from KCNU Reporting Station
Haze Haze  
Wind Chill: 38°   Ceiling: 700
Heat Index: 44°   Visibility: 2.5mi
Dew Point: 43°   Wind: 12mph
Humidity: 96%   Direction: 150°SSE
Pressure: 29.61"   Gusts: NA
Location:  37.92°N, 95.35°W
Report Text: KCNU 221042Z AUTO 15010KT 2 1/2SM BR OVC007 07/06 A2961 RMK AO2 CIG 005V010 T00670061
Loading
Personal Weather Stations






























Interactive Weather Map New forecast layout! Learn more

10-Day Weather Forecast

Advertisements
Track Severe Weather on mobile